createdAt,value
2017-12-01T00:00:55.495Z,1000.18
2017-12-01T00:01:55.491Z,1000.22
2017-12-01T00:02:55.504Z,1000.23
2017-12-01T00:03:55.501Z,1000.23
2017-12-01T00:04:55.510Z,1000.23
2017-12-01T00:05:55.516Z,1000.23
2017-12-01T00:06:55.524Z,1000.26
2017-12-01T00:07:55.542Z,1000.21
2017-12-01T00:08:55.542Z,1000.26
2017-12-01T00:09:55.547Z,1000.27
2017-12-01T00:10:55.554Z,1000.29
2017-12-01T00:11:55.566Z,1000.31
2017-12-01T00:12:55.578Z,1000.34
2017-12-01T00:13:55.569Z,1000.36
2017-12-01T00:14:55.576Z,1000.33
2017-12-01T00:15:55.577Z,1000.37
2017-12-01T00:16:55.592Z,1000.33
2017-12-01T00:17:55.587Z,1000.39
2017-12-01T00:18:55.602Z,1000.38
2017-12-01T00:19:55.608Z,1000.43
2017-12-01T00:20:55.612Z,1000.42
2017-12-01T00:21:55.622Z,1000.42
2017-12-01T00:22:55.627Z,1000.38
2017-12-01T00:23:55.627Z,1000.46
2017-12-01T00:24:55.636Z,1000.44
2017-12-01T00:25:55.637Z,1000.45
2017-12-01T00:26:55.652Z,1000.49
2017-12-01T00:27:55.659Z,1000.52
2017-12-01T00:28:55.660Z,1000.49
2017-12-01T00:29:55.668Z,1000.48
2017-12-01T00:30:55.673Z,1000.52
2017-12-01T00:31:55.679Z,1000.55
2017-12-01T00:32:55.683Z,1000.54
2017-12-01T00:33:55.687Z,1000.53
2017-12-01T00:34:55.698Z,1000.55
2017-12-01T00:35:55.708Z,1000.55
2017-12-01T00:36:55.708Z,1000.53
2017-12-01T00:37:55.721Z,1000.51
2017-12-01T00:38:55.731Z,1000.56
2017-12-01T00:39:55.732Z,1000.56
2017-12-01T00:40:55.733Z,1000.59
2017-12-01T00:41:55.808Z,1000.63
2017-12-01T00:42:55.744Z,1000.69
2017-12-01T00:43:55.752Z,1000.65
2017-12-01T00:44:55.759Z,1000.63
2017-12-01T00:45:55.767Z,1000.68
2017-12-01T00:46:55.778Z,1000.68
2017-12-01T00:47:55.772Z,1000.69
2017-12-01T00:48:55.782Z,1000.65
2017-12-01T00:49:55.794Z,1000.68
2017-12-01T00:50:55.797Z,1000.70
2017-12-01T00:51:55.795Z,1000.72
2017-12-01T00:52:55.805Z,1000.71
2017-12-01T00:53:55.817Z,1000.71
2017-12-01T00:54:55.843Z,1000.72
2017-12-01T00:55:55.839Z,1000.71
2017-12-01T00:56:55.823Z,1000.70
2017-12-01T00:57:55.851Z,1000.76
2017-12-01T00:58:55.843Z,1000.80
2017-12-01T00:59:55.853Z,1000.79
2017-12-01T01:00:55.855Z,1000.77
2017-12-01T01:01:55.864Z,1000.78
2017-12-01T01:02:55.875Z,1000.77
2017-12-01T01:03:55.880Z,1000.82
2017-12-01T01:04:55.944Z,1000.83
2017-12-01T01:05:55.883Z,1000.84
2017-12-01T01:06:55.890Z,1000.83
2017-12-01T01:07:55.895Z,1000.85
2017-12-01T01:08:55.901Z,1000.88
2017-12-01T01:09:55.912Z,1000.89
2017-12-01T01:10:55.919Z,1000.90
2017-12-01T01:11:55.925Z,1000.95
2017-12-01T01:12:55.925Z,1000.96
2017-12-01T01:13:55.931Z,1001.00
2017-12-01T01:14:55.939Z,1001.00
2017-12-01T01:15:55.946Z,1000.97
2017-12-01T01:16:55.965Z,1001.03
2017-12-01T01:17:55.963Z,1001.02
2017-12-01T01:18:55.962Z,1001.02
2017-12-01T01:19:55.972Z,1001.00
2017-12-01T01:20:55.979Z,1001.00
2017-12-01T01:21:55.985Z,1001.01
2017-12-01T01:22:55.993Z,1001.01
2017-12-01T01:23:55.990Z,1001.00
2017-12-01T01:24:55.999Z,1001.01
2017-12-01T01:25:56.013Z,1001.04
2017-12-01T01:26:56.014Z,1001.05
2017-12-01T01:27:56.018Z,1001.05
2017-12-01T01:28:56.030Z,1001.05
2017-12-01T01:29:56.028Z,1001.10
2017-12-01T01:30:56.031Z,1001.12
2017-12-01T01:31:56.039Z,1001.11
2017-12-01T01:32:56.056Z,1001.15
2017-12-01T01:33:56.051Z,1001.17
2017-12-01T01:34:56.059Z,1001.21
2017-12-01T01:35:56.067Z,1001.20
2017-12-01T01:36:56.074Z,1001.19
2017-12-01T01:37:56.080Z,1001.21
2017-12-01T01:38:56.098Z,1001.21
2017-12-01T01:39:56.088Z,1001.21
2017-12-01T01:40:56.101Z,1001.23
2017-12-01T01:41:56.099Z,1001.22
2017-12-01T01:42:56.106Z,1001.22
2017-12-01T01:43:56.135Z,1001.21
2017-12-01T01:44:56.125Z,1001.21
2017-12-01T01:45:56.133Z,1001.21
2017-12-01T01:46:56.126Z,1001.25
2017-12-01T01:47:56.142Z,1001.22
2017-12-01T01:48:56.140Z,1001.25
2017-12-01T01:49:56.153Z,1001.27
2017-12-01T01:50:56.152Z,1001.35
2017-12-01T01:51:56.164Z,1001.35
2017-12-01T01:52:56.163Z,1001.37
2017-12-01T01:53:56.170Z,1001.38
2017-12-01T01:54:56.184Z,1001.39
2017-12-01T01:55:56.261Z,1001.39
2017-12-01T01:56:56.204Z,1001.42
2017-12-01T01:57:56.198Z,1001.42
2017-12-01T01:58:56.201Z,1001.43
2017-12-01T01:59:56.209Z,1001.41
2017-12-01T02:00:56.215Z,1001.43
2017-12-01T02:01:56.221Z,1001.48
2017-12-01T02:02:56.229Z,1001.46
2017-12-01T02:03:56.237Z,1001.46
2017-12-01T02:04:56.250Z,1001.48
2017-12-01T02:05:56.248Z,1001.48
2017-12-01T02:06:56.250Z,1001.50
2017-12-01T02:07:56.261Z,1001.57
2017-12-01T02:08:56.263Z,1001.55
2017-12-01T02:09:56.275Z,1001.54
2017-12-01T02:10:56.293Z,1001.57
2017-12-01T02:11:56.275Z,1001.55
2017-12-01T02:12:56.287Z,1001.57
2017-12-01T02:13:56.293Z,1001.61
2017-12-01T02:14:56.303Z,1001.60
2017-12-01T02:15:56.310Z,1001.63
2017-12-01T02:16:56.314Z,1001.64
2017-12-01T02:17:56.325Z,1001.64
2017-12-01T02:18:56.324Z,1001.61
2017-12-01T02:19:56.327Z,1001.63
2017-12-01T02:20:56.336Z,1001.62
2017-12-01T02:21:56.346Z,1001.64
2017-12-01T02:22:56.357Z,1001.67
2017-12-01T02:23:56.405Z,1001.68
2017-12-01T02:24:56.359Z,1001.65
2017-12-01T02:25:56.365Z,1001.70
2017-12-01T02:26:56.370Z,1001.73
2017-12-01T02:27:56.374Z,1001.75
2017-12-01T02:28:56.387Z,1001.73
2017-12-01T02:29:56.396Z,1001.80
2017-12-01T02:30:56.394Z,1001.82
2017-12-01T02:31:56.404Z,1001.80
2017-12-01T02:32:56.410Z,1001.87
2017-12-01T02:33:56.408Z,1001.83
2017-12-01T02:34:56.421Z,1001.82
2017-12-01T02:35:56.422Z,1001.84
2017-12-01T02:36:56.444Z,1001.86
2017-12-01T02:37:56.437Z,1001.84
2017-12-01T02:38:56.441Z,1001.89
2017-12-01T02:39:56.448Z,1001.85
2017-12-01T02:40:56.455Z,1001.89
2017-12-01T02:41:56.463Z,1001.91
2017-12-01T02:42:56.477Z,1001.91
2017-12-01T02:43:56.474Z,1001.90
2017-12-01T02:44:56.480Z,1001.95
2017-12-01T02:45:56.490Z,1001.93
2017-12-01T02:46:56.549Z,1001.96
2017-12-01T02:47:56.499Z,1001.94
2017-12-01T02:48:56.505Z,1001.96
2017-12-01T02:49:56.512Z,1002.00
2017-12-01T02:50:56.513Z,1002.05
2017-12-01T02:51:56.525Z,1002.06
2017-12-01T02:52:56.529Z,1002.04
2017-12-01T02:53:56.536Z,1002.06
2017-12-01T02:54:56.542Z,1002.07
2017-12-01T02:55:56.545Z,1002.09
2017-12-01T02:56:56.546Z,1002.12
2017-12-01T02:57:56.558Z,1002.15
2017-12-01T02:58:56.563Z,1002.18
2017-12-01T02:59:56.568Z,1002.15
2017-12-01T03:00:56.577Z,1002.19
2017-12-01T03:01:56.584Z,1002.22
2017-12-01T03:02:56.593Z,1002.24
2017-12-01T03:03:56.593Z,1002.26
2017-12-01T03:04:56.599Z,1002.26
2017-12-01T03:05:56.616Z,1002.26
2017-12-01T03:06:56.614Z,1002.26
2017-12-01T03:07:56.617Z,1002.26
2017-12-01T03:08:56.622Z,1002.27
2017-12-01T03:09:56.644Z,1002.21
2017-12-01T03:10:56.644Z,1002.20
2017-12-01T03:11:56.640Z,1002.23
2017-12-01T03:12:56.651Z,1002.19
2017-12-01T03:13:56.664Z,1002.23
2017-12-01T03:14:56.667Z,1002.24
2017-12-01T03:15:56.666Z,1002.22
2017-12-01T03:16:56.669Z,1002.19
2017-12-01T03:17:56.678Z,1002.23
2017-12-01T03:18:56.680Z,1002.21
2017-12-01T03:19:56.696Z,1002.25
2017-12-01T03:20:56.699Z,1002.27
2017-12-01T03:21:56.704Z,1002.28
2017-12-01T03:22:56.709Z,1002.31
2017-12-01T03:23:56.720Z,1002.31
2017-12-01T03:24:56.712Z,1002.31
2017-12-01T03:25:56.725Z,1002.32
2017-12-01T03:26:56.735Z,1002.35
2017-12-01T03:27:56.739Z,1002.33
2017-12-01T03:28:56.742Z,1002.37
2017-12-01T03:29:56.752Z,1002.38
2017-12-01T03:30:56.758Z,1002.44
2017-12-01T03:31:56.762Z,1002.40
2017-12-01T03:32:56.765Z,1002.46
2017-12-01T03:33:56.771Z,1002.47
2017-12-01T03:34:56.776Z,1002.46
2017-12-01T03:35:56.787Z,1002.46
2017-12-01T03:36:56.790Z,1002.52
2017-12-01T03:37:56.802Z,1002.48
2017-12-01T03:38:56.803Z,1002.52
2017-12-01T03:39:56.808Z,1002.57
2017-12-01T03:40:56.815Z,1002.57
2017-12-01T03:41:56.818Z,1002.59
2017-12-01T03:42:56.828Z,1002.60
2017-12-01T03:43:56.843Z,1002.62
2017-12-01T03:44:56.841Z,1002.60
2017-12-01T03:45:56.845Z,1002.62
2017-12-01T03:46:56.853Z,1002.68
2017-12-01T03:47:56.854Z,1002.71
2017-12-01T03:48:56.879Z,1002.75
2017-12-01T03:49:56.872Z,1002.70
2017-12-01T03:50:56.880Z,1002.66
2017-12-01T03:51:56.882Z,1002.69
2017-12-01T03:52:56.888Z,1002.75
2017-12-01T03:53:56.901Z,1002.71
2017-12-01T03:54:56.901Z,1002.76
2017-12-01T03:55:56.913Z,1002.83
2017-12-01T03:56:56.910Z,1002.81
2017-12-01T03:57:56.923Z,1002.82
2017-12-01T03:58:56.924Z,1002.84
2017-12-01T03:59:56.933Z,1002.84
2017-12-01T04:00:56.937Z,1002.92
2017-12-01T04:01:56.944Z,1002.89
2017-12-01T04:02:56.981Z,1002.89
2017-12-01T04:03:56.958Z,1002.93
2017-12-01T04:04:56.966Z,1002.95
2017-12-01T04:05:56.972Z,1002.94
2017-12-01T04:06:56.975Z,1002.95
2017-12-01T04:07:56.987Z,1003.02
2017-12-01T04:08:56.985Z,1003.03
2017-12-01T04:09:56.987Z,1003.02
2017-12-01T04:10:56.998Z,1003.04
2017-12-01T04:11:56.998Z,1003.08
2017-12-01T04:12:57.013Z,1003.13
2017-12-01T04:13:57.017Z,1003.16
2017-12-01T04:14:57.022Z,1003.21
2017-12-01T04:15:57.836Z,1003.20
2017-12-01T04:16:57.031Z,1003.15
2017-12-01T04:17:57.034Z,1003.23
2017-12-01T04:18:57.043Z,1003.23
2017-12-01T04:19:57.046Z,1003.27
2017-12-01T04:20:57.054Z,1003.26
2017-12-01T04:21:57.060Z,1003.26
2017-12-01T04:22:57.070Z,1003.31
2017-12-01T04:23:57.071Z,1003.37
2017-12-01T04:24:57.076Z,1003.36
2017-12-01T04:25:57.089Z,1003.36
2017-12-01T04:26:57.099Z,1003.41
2017-12-01T04:27:57.096Z,1003.43
2017-12-01T04:28:57.108Z,1003.44
2017-12-01T04:29:57.105Z,1003.42
2017-12-01T04:30:57.119Z,1003.43
2017-12-01T04:31:57.132Z,1003.46
2017-12-01T04:32:57.132Z,1003.46
2017-12-01T04:33:57.139Z,1003.49
2017-12-01T04:34:57.140Z,1003.49
2017-12-01T04:35:57.141Z,1003.52
2017-12-01T04:36:57.154Z,1003.53
2017-12-01T04:37:57.157Z,1003.59
2017-12-01T04:38:57.837Z,1003.61
2017-12-01T04:39:57.169Z,1003.61
2017-12-01T04:40:57.178Z,1003.62
2017-12-01T04:41:57.183Z,1003.57
2017-12-01T04:42:57.191Z,1003.60
2017-12-01T04:43:57.211Z,1003.60
2017-12-01T04:44:57.204Z,1003.64
2017-12-01T04:45:57.210Z,1003.64
2017-12-01T04:46:57.214Z,1003.68
2017-12-01T04:47:57.217Z,1003.68
2017-12-01T04:48:57.225Z,1003.75
2017-12-01T04:49:57.230Z,1003.76
2017-12-01T04:50:57.241Z,1003.72
2017-12-01T04:51:57.248Z,1003.74
2017-12-01T04:52:57.250Z,1003.75
2017-12-01T04:53:57.254Z,1003.78
2017-12-01T04:54:57.263Z,1003.79
2017-12-01T04:55:57.269Z,1003.85
2017-12-01T04:56:57.316Z,1003.86
2017-12-01T04:57:57.280Z,1003.92
2017-12-01T04:58:57.291Z,1003.92
2017-12-01T04:59:57.297Z,1003.92
2017-12-01T05:00:57.306Z,1003.93
2017-12-01T05:01:57.309Z,1003.92
2017-12-01T05:02:57.308Z,1003.93
2017-12-01T05:03:57.315Z,1003.98
2017-12-01T05:04:57.321Z,1003.95
2017-12-01T05:05:57.323Z,1004.02
2017-12-01T05:06:57.338Z,1004.04
2017-12-01T05:07:57.342Z,1004.04
2017-12-01T05:08:57.343Z,1004.06
2017-12-01T05:09:57.347Z,1004.05
2017-12-01T05:10:57.368Z,1004.05
2017-12-01T05:11:57.368Z,1004.05
2017-12-01T05:12:57.365Z,1004.06
2017-12-01T05:13:57.375Z,1004.07
2017-12-01T05:14:57.383Z,1004.08
2017-12-01T05:15:57.397Z,1004.11
2017-12-01T05:16:57.392Z,1004.13
2017-12-01T05:17:57.403Z,1004.15
2017-12-01T05:18:57.409Z,1004.12
2017-12-01T05:19:57.458Z,1004.16
2017-12-01T05:20:57.421Z,1004.17
2017-12-01T05:21:57.430Z,1004.20
2017-12-01T05:22:57.429Z,1004.16
2017-12-01T05:23:57.436Z,1004.21
2017-12-01T05:24:57.444Z,1004.21
2017-12-01T05:25:57.444Z,1004.17
2017-12-01T05:26:57.449Z,1004.18
2017-12-01T05:27:57.459Z,1004.22
2017-12-01T05:28:57.468Z,1004.25
2017-12-01T05:29:57.580Z,1004.27
2017-12-01T05:30:57.479Z,1004.25
2017-12-01T05:31:57.484Z,1004.25
2017-12-01T05:32:57.492Z,1004.27
2017-12-01T05:33:57.500Z,1004.30
2017-12-01T05:34:57.504Z,1004.31
2017-12-01T05:35:57.503Z,1004.29
2017-12-01T05:36:57.519Z,1004.33
2017-12-01T05:37:57.520Z,1004.31
2017-12-01T05:38:57.552Z,1004.34
2017-12-01T05:39:57.532Z,1004.39
2017-12-01T05:40:57.538Z,1004.42
2017-12-01T05:41:57.545Z,1004.43
2017-12-01T05:42:57.553Z,1004.46
2017-12-01T05:43:57.551Z,1004.50
2017-12-01T05:44:57.564Z,1004.50
2017-12-01T05:45:57.563Z,1004.50
2017-12-01T05:46:57.576Z,1004.55
2017-12-01T05:47:57.594Z,1004.56
2017-12-01T05:48:57.583Z,1004.61
2017-12-01T05:49:57.592Z,1004.67
2017-12-01T05:50:57.599Z,1004.65
2017-12-01T05:51:57.602Z,1004.68
2017-12-01T05:52:57.622Z,1004.67
2017-12-01T05:53:57.615Z,1004.67
2017-12-01T05:54:57.620Z,1004.64
2017-12-01T05:55:57.627Z,1004.63
2017-12-01T05:56:57.633Z,1004.62
2017-12-01T05:57:57.695Z,1004.65
2017-12-01T05:58:57.648Z,1004.65
2017-12-01T05:59:57.650Z,1004.73
2017-12-01T06:00:57.668Z,1004.72
2017-12-01T06:01:57.667Z,1004.72
2017-12-01T06:02:57.673Z,1004.75
2017-12-01T06:03:57.672Z,1004.76
2017-12-01T06:04:57.687Z,1004.79
2017-12-01T06:05:57.687Z,1004.82
2017-12-01T06:06:57.695Z,1004.81
2017-12-01T06:07:57.699Z,1004.84
2017-12-01T06:08:57.708Z,1004.80
2017-12-01T06:09:57.714Z,1004.82
2017-12-01T06:10:57.719Z,1004.84
2017-12-01T06:11:57.730Z,1004.84
2017-12-01T06:12:57.732Z,1004.80
2017-12-01T06:13:57.735Z,1004.86
2017-12-01T06:14:57.746Z,1004.89
2017-12-01T06:15:57.749Z,1004.84
2017-12-01T06:16:57.756Z,1004.89
2017-12-01T06:17:57.765Z,1004.88
2017-12-01T06:18:57.762Z,1004.92
2017-12-01T06:19:57.768Z,1005.00
2017-12-01T06:20:57.786Z,1005.00
2017-12-01T06:21:57.781Z,1005.05
2017-12-01T06:22:57.790Z,1005.01
2017-12-01T06:23:57.796Z,1005.05
2017-12-01T06:24:57.800Z,1005.09
2017-12-01T06:25:57.810Z,1005.08
2017-12-01T06:26:57.818Z,1005.10
2017-12-01T06:27:57.813Z,1005.11
2017-12-01T06:28:57.818Z,1005.15
2017-12-01T06:29:57.886Z,1005.15
2017-12-01T06:30:57.862Z,1005.13
2017-12-01T06:31:57.842Z,1005.17
2017-12-01T06:32:57.857Z,1005.21
2017-12-01T06:33:57.859Z,1005.20
2017-12-01T06:34:57.869Z,1005.23
2017-12-01T06:35:57.861Z,1005.25
2017-12-01T06:36:57.888Z,1005.26
2017-12-01T06:37:57.880Z,1005.27
2017-12-01T06:38:57.908Z,1005.30
2017-12-01T06:39:57.887Z,1005.33
2017-12-01T06:40:57.898Z,1005.38
2017-12-01T06:41:57.898Z,1005.38
2017-12-01T06:42:57.909Z,1005.40
2017-12-01T06:43:57.911Z,1005.38
2017-12-01T06:44:57.928Z,1005.44
2017-12-01T06:45:57.926Z,1005.43
2017-12-01T06:46:57.928Z,1005.42
2017-12-01T06:47:57.938Z,1005.44
2017-12-01T06:48:57.942Z,1005.42
2017-12-01T06:49:57.947Z,1005.47
2017-12-01T06:50:57.953Z,1005.53
2017-12-01T06:51:57.959Z,1005.52
2017-12-01T06:52:57.965Z,1005.52
2017-12-01T06:53:57.978Z,1005.59
2017-12-01T06:54:57.985Z,1005.61
2017-12-01T06:55:57.988Z,1005.59
2017-12-01T06:56:57.992Z,1005.63
2017-12-01T06:57:57.998Z,1005.63
2017-12-01T06:58:58.003Z,1005.63
2017-12-01T06:59:58.032Z,1005.66
2017-12-01T07:00:58.012Z,1005.66
2017-12-01T07:01:58.022Z,1005.70
2017-12-01T07:02:58.020Z,1005.73
2017-12-01T07:03:58.033Z,1005.77
2017-12-01T07:04:58.036Z,1005.75
2017-12-01T07:05:58.041Z,1005.77
2017-12-01T07:06:58.103Z,1005.80
2017-12-01T07:07:58.050Z,1005.74
2017-12-01T07:08:58.065Z,1005.82
2017-12-01T07:09:58.068Z,1005.86
2017-12-01T07:10:58.081Z,1005.87
2017-12-01T07:11:58.083Z,1005.91
2017-12-01T07:12:58.082Z,1005.89
2017-12-01T07:13:58.090Z,1005.91
2017-12-01T07:14:58.100Z,1005.93
2017-12-01T07:15:58.101Z,1005.90
2017-12-01T07:16:58.105Z,1005.91
2017-12-01T07:17:58.113Z,1005.94
2017-12-01T07:18:58.131Z,1005.95
2017-12-01T07:19:58.124Z,1005.99
2017-12-01T07:20:58.129Z,1005.93
2017-12-01T07:21:58.135Z,1006.00
2017-12-01T07:22:58.140Z,1006.01
2017-12-01T07:23:58.146Z,1006.05
2017-12-01T07:24:58.152Z,1006.03
2017-12-01T07:25:58.160Z,1006.08
2017-12-01T07:26:58.166Z,1006.08
2017-12-01T07:27:58.173Z,1006.12
2017-12-01T07:28:58.178Z,1006.15
2017-12-01T07:29:58.181Z,1006.12
2017-12-01T07:30:58.189Z,1006.16
2017-12-01T07:31:58.195Z,1006.19
2017-12-01T07:32:58.197Z,1006.19
2017-12-01T07:33:58.208Z,1006.19
2017-12-01T07:34:58.211Z,1006.21
2017-12-01T07:35:58.221Z,1006.29
2017-12-01T07:36:58.223Z,1006.29
2017-12-01T07:37:58.226Z,1006.28
2017-12-01T07:38:58.234Z,1006.30
2017-12-01T07:39:58.248Z,1006.33
2017-12-01T07:40:58.243Z,1006.33
2017-12-01T07:41:58.258Z,1006.33
2017-12-01T07:42:58.259Z,1006.37
2017-12-01T07:43:58.264Z,1006.37
2017-12-01T07:44:58.270Z,1006.40
2017-12-01T07:45:58.279Z,1006.46
2017-12-01T07:46:58.278Z,1006.47
2017-12-01T07:47:58.289Z,1006.47
2017-12-01T07:48:58.289Z,1006.51
2017-12-01T07:49:58.300Z,1006.53
2017-12-01T07:50:58.303Z,1006.58
2017-12-01T07:51:58.309Z,1006.53
2017-12-01T07:52:58.310Z,1006.60
2017-12-01T07:53:58.318Z,1006.59
2017-12-01T07:54:58.327Z,1006.64
2017-12-01T07:55:58.330Z,1006.61
2017-12-01T07:56:58.340Z,1006.59
2017-12-01T07:57:58.354Z,1006.63
2017-12-01T07:58:58.349Z,1006.64
2017-12-01T07:59:58.378Z,1006.64
2017-12-01T08:00:58.359Z,1006.69
2017-12-01T08:01:58.375Z,1006.66
2017-12-01T08:02:58.368Z,1006.75
2017-12-01T08:03:58.381Z,1006.70
2017-12-01T08:04:58.390Z,1006.75
2017-12-01T08:05:58.396Z,1006.78
2017-12-01T08:06:58.398Z,1006.78
2017-12-01T08:07:58.397Z,1006.80
2017-12-01T08:08:58.405Z,1006.82
2017-12-01T08:09:58.445Z,1006.86
2017-12-01T08:10:58.414Z,1006.85
2017-12-01T08:11:58.423Z,1006.84
2017-12-01T08:12:58.441Z,1006.85
2017-12-01T08:13:58.434Z,1006.88
2017-12-01T08:14:58.441Z,1006.93
2017-12-01T08:15:58.451Z,1006.95
2017-12-01T08:16:58.455Z,1006.97
2017-12-01T08:17:58.460Z,1007.03
2017-12-01T08:18:58.470Z,1007.02
2017-12-01T08:19:58.471Z,1007.01
2017-12-01T08:20:58.518Z,1007.06
2017-12-01T08:21:58.486Z,1007.03
2017-12-01T08:22:58.497Z,1007.10
2017-12-01T08:23:58.496Z,1007.09
2017-12-01T08:24:58.504Z,1007.10
2017-12-01T08:25:58.514Z,1007.12
2017-12-01T08:26:58.514Z,1007.12
2017-12-01T08:27:58.515Z,1007.15
2017-12-01T08:28:58.528Z,1007.16
2017-12-01T08:29:58.529Z,1007.20
2017-12-01T08:30:58.665Z,1007.23
2017-12-01T08:31:58.541Z,1007.24
2017-12-01T08:32:58.554Z,1007.23
2017-12-01T08:33:58.557Z,1007.31
2017-12-01T08:34:58.566Z,1007.32
2017-12-01T08:35:58.567Z,1007.31
2017-12-01T08:36:58.570Z,1007.37
2017-12-01T08:37:58.580Z,1007.36
2017-12-01T08:38:58.586Z,1007.40
2017-12-01T08:39:58.600Z,1007.38
2017-12-01T08:40:58.602Z,1007.46
2017-12-01T08:41:58.609Z,1007.41
2017-12-01T08:42:58.610Z,1007.42
2017-12-01T08:43:58.628Z,1007.40
2017-12-01T08:44:58.627Z,1007.45
2017-12-01T08:45:58.637Z,1007.43
2017-12-01T08:46:58.632Z,1007.48
2017-12-01T08:47:58.650Z,1007.48
2017-12-01T08:48:58.645Z,1007.52
2017-12-01T08:49:58.654Z,1007.55
2017-12-01T08:50:58.655Z,1007.56
2017-12-01T08:51:58.668Z,1007.57
2017-12-01T08:52:58.675Z,1007.58
2017-12-01T08:53:58.770Z,1007.65
2017-12-01T08:54:58.677Z,1007.63
2017-12-01T08:55:58.695Z,1007.62
2017-12-01T08:56:58.690Z,1007.67
2017-12-01T08:57:58.699Z,1007.69
2017-12-01T08:58:58.714Z,1007.69
2017-12-01T08:59:58.723Z,1007.70
2017-12-01T09:00:58.722Z,1007.68
2017-12-01T09:01:58.723Z,1007.69
2017-12-01T09:02:58.733Z,1007.77
2017-12-01T09:03:58.739Z,1007.77
2017-12-01T09:04:58.747Z,1007.79
2017-12-01T09:05:58.753Z,1007.78
2017-12-01T09:06:58.753Z,1007.78
2017-12-01T09:07:58.768Z,1007.78
2017-12-01T09:08:58.775Z,1007.81
2017-12-01T09:09:58.783Z,1007.87
2017-12-01T09:10:58.791Z,1007.87
2017-12-01T09:11:59.354Z,1007.89
2017-12-01T09:12:58.792Z,1007.90
2017-12-01T09:13:58.816Z,1007.95
2017-12-01T09:14:58.818Z,1007.94
2017-12-01T09:15:58.812Z,1007.95
2017-12-01T09:16:58.824Z,1008.02
2017-12-01T09:17:58.832Z,1008.01
2017-12-01T09:18:58.836Z,1007.98
2017-12-01T09:19:58.845Z,1008.05
2017-12-01T09:20:58.852Z,1008.03
2017-12-01T09:21:58.998Z,1008.02
2017-12-01T09:22:58.861Z,1008.05
2017-12-01T09:23:58.869Z,1008.10
2017-12-01T09:24:58.872Z,1008.07
2017-12-01T09:25:58.889Z,1008.11
2017-12-01T09:26:58.890Z,1008.11
2017-12-01T09:27:58.895Z,1008.15
2017-12-01T09:28:58.896Z,1008.19
2017-12-01T09:29:58.924Z,1008.23
2017-12-01T09:30:58.916Z,1008.22
2017-12-01T09:31:58.924Z,1008.23
2017-12-01T09:32:58.932Z,1008.25
2017-12-01T09:33:58.938Z,1008.25
2017-12-01T09:34:58.944Z,1008.23
2017-12-01T09:35:58.953Z,1008.23
2017-12-01T09:36:58.962Z,1008.24
2017-12-01T09:37:58.974Z,1008.27
2017-12-01T09:38:58.981Z,1008.32
2017-12-01T09:39:58.977Z,1008.32
2017-12-01T09:40:58.981Z,1008.35
2017-12-01T09:41:58.992Z,1008.31
2017-12-01T09:42:59.008Z,1008.35
2017-12-01T09:43:59.010Z,1008.39
2017-12-01T09:44:59.037Z,1008.44
2017-12-01T09:45:59.022Z,1008.43
2017-12-01T09:46:59.029Z,1008.44
2017-12-01T09:47:59.036Z,1008.41
2017-12-01T09:48:59.038Z,1008.43
2017-12-01T09:49:59.075Z,1008.43
2017-12-01T09:50:59.062Z,1008.42
2017-12-01T09:51:59.074Z,1008.42
2017-12-01T09:52:59.083Z,1008.43
2017-12-01T09:53:59.094Z,1008.46
2017-12-01T09:54:59.088Z,1008.42
2017-12-01T09:55:59.120Z,1008.51
2017-12-01T09:56:59.135Z,1008.49
2017-12-01T09:57:59.118Z,1008.48
2017-12-01T09:58:59.133Z,1008.51
2017-12-01T10:00:59.149Z,1008.52
2017-12-01T10:01:59.150Z,1008.55
2017-12-01T10:02:59.162Z,1008.59
2017-12-01T10:03:59.170Z,1008.55
2017-12-01T10:04:59.186Z,1008.62
2017-12-01T10:05:59.186Z,1008.61
2017-12-01T10:06:59.193Z,1008.64
2017-12-01T10:07:59.203Z,1008.60
2017-12-01T10:08:59.250Z,1008.62
2017-12-01T10:09:59.218Z,1008.61
2017-12-01T10:10:59.239Z,1008.63
2017-12-01T10:11:59.229Z,1008.69
2017-12-01T10:12:59.281Z,1008.65
2017-12-01T10:13:59.247Z,1008.70
2017-12-01T10:14:59.253Z,1008.71
2017-12-01T10:15:59.260Z,1008.69
2017-12-01T10:16:59.318Z,1008.75
2017-12-01T10:17:59.277Z,1008.72
2017-12-01T10:18:59.288Z,1008.74
2017-12-01T10:19:59.296Z,1008.68
2017-12-01T10:20:59.308Z,1008.72
2017-12-01T10:21:59.308Z,1008.76
2017-12-01T10:22:59.413Z,1008.78
2017-12-01T10:23:59.335Z,1008.79
2017-12-01T10:24:59.334Z,1008.81
2017-12-01T10:25:59.368Z,1008.81
2017-12-01T10:26:59.356Z,1008.81
2017-12-01T10:27:59.361Z,1008.82
2017-12-01T10:28:59.372Z,1008.86
2017-12-01T10:29:59.383Z,1008.88
2017-12-01T10:30:59.397Z,1008.87
2017-12-01T10:31:59.410Z,1008.88
2017-12-01T10:32:59.409Z,1008.87
2017-12-01T10:33:59.421Z,1008.88
2017-12-01T10:34:59.437Z,1008.85
2017-12-01T10:35:59.433Z,1008.88
2017-12-01T10:36:59.457Z,1008.92
2017-12-01T10:37:59.461Z,1008.92
2017-12-01T10:38:59.458Z,1008.93
2017-12-01T10:39:59.480Z,1008.90
2017-12-01T10:40:59.482Z,1008.92
2017-12-01T10:41:59.489Z,1008.88
2017-12-01T10:42:59.497Z,1008.94
2017-12-01T10:43:59.513Z,1008.96
2017-12-01T10:44:59.522Z,1008.94
2017-12-01T10:45:59.528Z,1008.94
2017-12-01T10:46:59.537Z,1008.97
2017-12-01T10:47:59.545Z,1008.96
2017-12-01T10:48:59.548Z,1008.94
2017-12-01T10:49:59.568Z,1009.01
2017-12-01T10:50:59.568Z,1008.97
2017-12-01T10:51:59.576Z,1008.91
2017-12-01T10:52:59.591Z,1008.89
2017-12-01T10:53:59.594Z,1008.89
2017-12-01T10:54:59.612Z,1008.92
2017-12-01T10:55:59.623Z,1008.88
2017-12-01T10:56:59.630Z,1008.86
2017-12-01T10:57:59.637Z,1008.90
2017-12-01T10:58:59.644Z,1008.90
2017-12-01T10:59:59.657Z,1008.87
2017-12-01T11:00:59.735Z,1008.87
2017-12-01T11:01:59.669Z,1008.91
2017-12-01T11:02:59.683Z,1008.89
2017-12-01T11:03:59.695Z,1008.96
2017-12-01T11:04:59.698Z,1008.91
2017-12-01T11:05:59.712Z,1008.91
2017-12-01T11:06:59.717Z,1008.94
2017-12-01T11:07:59.726Z,1008.92
2017-12-01T11:08:59.729Z,1008.95
2017-12-01T11:09:59.739Z,1008.94
2017-12-01T11:11:00.369Z,1008.95
2017-12-01T11:11:59.768Z,1008.97
2017-12-01T11:12:59.773Z,1008.97
2017-12-01T11:13:59.781Z,1009.02
2017-12-01T11:14:59.794Z,1009.02
2017-12-01T11:15:59.800Z,1009.02
2017-12-01T11:16:59.807Z,1009.02
2017-12-01T11:17:59.817Z,1009.04
2017-12-01T11:18:59.830Z,1009.05
2017-12-01T11:19:59.835Z,1009.08
2017-12-01T11:20:59.841Z,1009.12
2017-12-01T11:21:59.859Z,1009.08
2017-12-01T11:22:59.862Z,1009.09
2017-12-01T11:23:59.926Z,1009.13
2017-12-01T11:24:59.893Z,1009.15
2017-12-01T11:25:59.900Z,1009.16
2017-12-01T11:26:59.896Z,1009.12
2017-12-01T11:27:59.916Z,1009.15
2017-12-01T11:29:59.926Z,1009.14
2017-12-01T11:31:59.947Z,1009.14
2017-12-01T11:32:59.955Z,1009.18
2017-12-01T11:33:59.988Z,1009.12
2017-12-01T11:34:59.989Z,1009.14
2017-12-01T11:36:00.025Z,1009.17
2017-12-01T11:37:00.003Z,1009.18
2017-12-01T11:38:00.009Z,1009.18
2017-12-01T11:39:00.025Z,1009.19
2017-12-01T11:40:00.038Z,1009.21
2017-12-01T11:42:00.051Z,1009.24
2017-12-01T11:43:00.056Z,1009.27
2017-12-01T11:44:00.066Z,1009.28
2017-12-01T11:45:00.079Z,1009.28
2017-12-01T11:46:00.100Z,1009.31
2017-12-01T11:47:00.095Z,1009.33
2017-12-01T11:48:00.107Z,1009.29
2017-12-01T11:49:00.118Z,1009.35
2017-12-01T11:50:00.132Z,1009.37
2017-12-01T11:51:00.148Z,1009.38
2017-12-01T11:52:00.148Z,1009.39
2017-12-01T11:53:00.157Z,1009.41
2017-12-01T11:54:00.167Z,1009.39
2017-12-01T11:55:00.177Z,1009.40
2017-12-01T11:56:00.195Z,1009.41
2017-12-01T11:57:00.208Z,1009.39
2017-12-01T11:58:00.209Z,1009.36
2017-12-01T11:59:00.314Z,1009.40
2017-12-01T12:00:00.221Z,1009.44
2017-12-01T12:01:00.235Z,1009.41
2017-12-01T12:02:00.244Z,1009.48
2017-12-01T12:03:00.252Z,1009.41
2017-12-01T12:04:00.264Z,1009.43
2017-12-01T12:05:00.274Z,1009.45
2017-12-01T12:06:00.282Z,1009.47
2017-12-01T12:07:00.295Z,1009.41
2017-12-01T12:08:00.301Z,1009.44
2017-12-01T12:09:00.304Z,1009.45
2017-12-01T12:10:00.330Z,1009.45